Terminal Aerodrome Forecast
Issued by NWS Binghamton, NY

Home | Current Version | Previous Version | Text Only | Print | Product List | Glossary On
Versions: 1 2 3 4 5 6 7 8 9 10 11 12 13 14 15 16 17 18
000
FTUS41 KBGM 271200 AAA
TAFBGM
TAF AMD
KBGM 271237Z 2713/2812 26005KT P6SM SCT022 BKN035
      TEMPO 2713/2716 BKN022 OVC035
     FM271600 30007KT P6SM BKN040
     FM280000 34005KT P6SM FEW060=

USA.gov is the U.S. government's official web portal to all federal, state and local government web resources and services.